Airfield :







YOU CAN JOIN US ON...

 
LOGIN :

Register | Disclaimer

   EN    FR    IT 

 









Legend :    VFR   Marginal VFR   IFR   Intensive IFR   Very Intensive IFR
Visi :
Ceiling :
>= 8 km
>= 3000ft
5 to 8 km
1000 to 3000 ft
1500m to 5 km
500 to 1000 ft
800 to 1500m
200 to 500 ft
< 800m
< 200 ft
Symbols :   Thunderstorms  Fog  Heavy snow  Heavy precipitations  Wind > 20 kt







- Airport Elevation : 9 ft


KPVC - Provincetown Municipal

CURRENT METAR :
  • 150656Z AUTO 22011KT 7SM BKN008 OVC012 19/18 A3013 RMK AO2 RAE02 SLP204 T01890183 PNO $

EXPIRED METARs :
  • 150640Z AUTO 21010KT 9SM BKN012 OVC023 19/18 A3014 RMK AO2 RAE02 PNO $
  • 150556Z AUTO 21011KT 6SM -RA BR BKN023 OVC028 19/18 A3015 RMK AO2 SLP208 6//// T01890183 10194 20183 56013 PNO $
  • 150456Z AUTO 21009KT 4SM RA BR BKN026 BKN033 BKN110 18/18 A3016 RMK AO2 RAB0359 SLP213 T01830178 402170122 PNO $
  • 150442Z AUTO 21007KT 8SM -RA BKN026 OVC036 18/18 A3017 RMK AO2 RAB0359 PNO $

TAF N/A
No reported NOTAMs for that airfield.



MET'MAP, your aeronautical weather chart ! - Copyright ORBIFLY December 2007 - Disclaimer

ORBIFLY MET'MAP TEAM :

Programming & Development : Alexandra Zaïnal
Concept & Development : Baudouin d'Aumeries
Co-Development & Prog : Marc-Olivier Méhu
Technical & hardware support : Manuel Goepfert

Contact : metmap@orbifly.com




SOURCES & CREDITS :

   NOAA